sensor_id;sensor_type;location;lat;lon;timestamp;temperature;humidity
16402;DHT22;8310;44.626;11.176;2023-02-07T00:01:39;4.30;60.00
16402;DHT22;8310;44.626;11.176;2023-02-07T00:04:06;4.30;60.00
16402;DHT22;8310;44.626;11.176;2023-02-07T00:06:35;4.30;60.00
16402;DHT22;8310;44.626;11.176;2023-02-07T00:09:06;4.40;60.00
16402;DHT22;8310;44.626;11.176;2023-02-07T00:11:37;4.30;60.00
16402;DHT22;8310;44.626;11.176;2023-02-07T00:14:07;4.30;60.00
16402;DHT22;8310;44.626;11.176;2023-02-07T00:16:36;4.30;60.00
16402;DHT22;8310;44.626;11.176;2023-02-07T00:19:04;4.30;60.00
16402;DHT22;8310;44.626;11.176;2023-02-07T00:21:32;4.30;60.00
16402;DHT22;8310;44.626;11.176;2023-02-07T00:24:00;4.20;59.90
16402;DHT22;8310;44.626;11.176;2023-02-07T00:26:29;4.20;59.80
16402;DHT22;8310;44.626;11.176;2023-02-07T00:28:58;4.00;59.40
16402;DHT22;8310;44.626;11.176;2023-02-07T00:31:29;3.80;59.10
16402;DHT22;8310;44.626;11.176;2023-02-07T00:33:59;3.60;59.00
16402;DHT22;8310;44.626;11.176;2023-02-07T00:36:30;3.40;59.10
16402;DHT22;8310;44.626;11.176;2023-02-07T00:39:00;3.30;59.10
16402;DHT22;8310;44.626;11.176;2023-02-07T00:41:30;3.20;59.30
16402;DHT22;8310;44.626;11.176;2023-02-07T00:44:00;3.10;59.30
16402;DHT22;8310;44.626;11.176;2023-02-07T00:46:29;3.10;59.40
16402;DHT22;8310;44.626;11.176;2023-02-07T00:48:57;3.10;59.30
16402;DHT22;8310;44.626;11.176;2023-02-07T00:51:25;3.00;59.30
16402;DHT22;8310;44.626;11.176;2023-02-07T00:53:54;2.90;59.10
16402;DHT22;8310;44.626;11.176;2023-02-07T00:56:27;2.90;59.20
16402;DHT22;8310;44.626;11.176;2023-02-07T00:58:55;2.80;59.20
16402;DHT22;8310;44.626;11.176;2023-02-07T01:01:24;2.80;59.20
16402;DHT22;8310;44.626;11.176;2023-02-07T01:03:53;2.70;59.10
16402;DHT22;8310;44.626;11.176;2023-02-07T01:06:21;2.70;59.10
16402;DHT22;8310;44.626;11.176;2023-02-07T01:08:49;2.60;59.20
16402;DHT22;8310;44.626;11.176;2023-02-07T01:11:18;2.60;59.20
16402;DHT22;8310;44.626;11.176;2023-02-07T01:13:46;2.60;59.20
16402;DHT22;8310;44.626;11.176;2023-02-07T01:16:18;2.60;59.10
16402;DHT22;8310;44.626;11.176;2023-02-07T01:18:47;2.60;59.00
16402;DHT22;8310;44.626;11.176;2023-02-07T01:21:18;2.50;59.00
16402;DHT22;8310;44.626;11.176;2023-02-07T01:23:47;2.50;59.20
16402;DHT22;8310;44.626;11.176;2023-02-07T01:26:16;2.70;59.40
16402;DHT22;8310;44.626;11.176;2023-02-07T01:28:46;2.60;59.40
16402;DHT22;8310;44.626;11.176;2023-02-07T01:31:14;2.60;59.40
16402;DHT22;8310;44.626;11.176;2023-02-07T01:33:42;2.70;59.50
16402;DHT22;8310;44.626;11.176;2023-02-07T01:36:14;2.80;60.20
16402;DHT22;8310;44.626;11.176;2023-02-07T01:38:42;2.80;59.60
16402;DHT22;8310;44.626;11.176;2023-02-07T01:41:11;2.80;59.50
16402;DHT22;8310;44.626;11.176;2023-02-07T01:43:57;2.80;59.60
16402;DHT22;8310;44.626;11.176;2023-02-07T01:46:27;2.80;59.60
16402;DHT22;8310;44.626;11.176;2023-02-07T01:48:58;2.90;59.60
16402;DHT22;8310;44.626;11.176;2023-02-07T01:51:29;2.90;59.60
16402;DHT22;8310;44.626;11.176;2023-02-07T01:54:01;2.90;59.60
16402;DHT22;8310;44.626;11.176;2023-02-07T01:56:31;2.90;59.60
16402;DHT22;8310;44.626;11.176;2023-02-07T01:59:00;2.90;59.60
16402;DHT22;8310;44.626;11.176;2023-02-07T02:01:29;2.90;59.60
16402;DHT22;8310;44.626;11.176;2023-02-07T02:03:57;2.90;59.40
16402;DHT22;8310;44.626;11.176;2023-02-07T02:06:30;2.80;59.30
16402;DHT22;8310;44.626;11.176;2023-02-07T02:09:00;2.70;59.40
16402;DHT22;8310;44.626;11.176;2023-02-07T02:11:48;2.70;59.40
16402;DHT22;8310;44.626;11.176;2023-02-07T02:14:31;2.70;59.40
16402;DHT22;8310;44.626;11.176;2023-02-07T02:17:08;2.70;59.50
16402;DHT22;8310;44.626;11.176;2023-02-07T02:23:00;2.70;59.40
16402;DHT22;8310;44.626;11.176;2023-02-07T02:26:03;2.60;59.40
16402;DHT22;8310;44.626;11.176;2023-02-07T02:35:02;2.50;59.30
16402;DHT22;8310;44.626;11.176;2023-02-07T02:37:39;2.40;59.50
16402;DHT22;8310;44.626;11.176;2023-02-07T02:40:16;2.30;59.10
16402;DHT22;8310;44.626;11.176;2023-02-07T02:42:51;2.20;59.00
16402;DHT22;8310;44.626;11.176;2023-02-07T02:45:24;2.00;58.80
16402;DHT22;8310;44.626;11.176;2023-02-07T02:47:55;1.90;58.80
16402;DHT22;8310;44.626;11.176;2023-02-07T02:50:28;1.80;58.90
16402;DHT22;8310;44.626;11.176;2023-02-07T02:52:58;1.80;59.10
16402;DHT22;8310;44.626;11.176;2023-02-07T02:55:45;1.80;59.20
16402;DHT22;8310;44.626;11.176;2023-02-07T02:58:24;1.80;59.20
16402;DHT22;8310;44.626;11.176;2023-02-07T03:01:08;1.80;59.00
16402;DHT22;8310;44.626;11.176;2023-02-07T03:04:03;1.70;59.00
16402;DHT22;8310;44.626;11.176;2023-02-07T03:06:46;1.70;59.10
16402;DHT22;8310;44.626;11.176;2023-02-07T03:09:24;1.70;59.10
16402;DHT22;8310;44.626;11.176;2023-02-07T03:12:04;1.70;59.20
16402;DHT22;8310;44.626;11.176;2023-02-07T03:14:37;1.70;59.10
16402;DHT22;8310;44.626;11.176;2023-02-07T03:17:15;1.70;59.10
16402;DHT22;8310;44.626;11.176;2023-02-07T03:19:50;1.70;59.20
16402;DHT22;8310;44.626;11.176;2023-02-07T03:22:23;1.70;59.10
16402;DHT22;8310;44.626;11.176;2023-02-07T03:24:55;1.80;59.10
16402;DHT22;8310;44.626;11.176;2023-02-07T03:27:25;1.60;59.00
16402;DHT22;8310;44.626;11.176;2023-02-07T03:29:56;1.60;59.00
16402;DHT22;8310;44.626;11.176;2023-02-07T03:32:27;1.60;59.00
16402;DHT22;8310;44.626;11.176;2023-02-07T03:34:59;1.60;59.10
16402;DHT22;8310;44.626;11.176;2023-02-07T03:37:35;1.60;59.10
16402;DHT22;8310;44.626;11.176;2023-02-07T03:40:06;1.60;59.00
16402;DHT22;8310;44.626;11.176;2023-02-07T03:45:29;1.50;59.00
16402;DHT22;8310;44.626;11.176;2023-02-07T03:47:57;1.60;59.10
16402;DHT22;8310;44.626;11.176;2023-02-07T03:50:25;1.60;59.10
16402;DHT22;8310;44.626;11.176;2023-02-07T03:52:55;1.60;59.20
16402;DHT22;8310;44.626;11.176;2023-02-07T03:55:24;1.60;59.10
16402;DHT22;8310;44.626;11.176;2023-02-07T03:57:51;1.60;59.20
16402;DHT22;8310;44.626;11.176;2023-02-07T04:00:20;1.60;59.20
16402;DHT22;8310;44.626;11.176;2023-02-07T04:02:48;1.60;59.20
16402;DHT22;8310;44.626;11.176;2023-02-07T04:05:17;1.60;59.20
16402;DHT22;8310;44.626;11.176;2023-02-07T04:08:05;1.50;59.00
16402;DHT22;8310;44.626;11.176;2023-02-07T04:10:33;1.40;58.80
16402;DHT22;8310;44.626;11.176;2023-02-07T04:13:02;1.20;58.60
16402;DHT22;8310;44.626;11.176;2023-02-07T04:15:31;1.10;58.40
16402;DHT22;8310;44.626;11.176;2023-02-07T04:18:00;0.90;58.20
16402;DHT22;8310;44.626;11.176;2023-02-07T04:20:29;0.70;58.30
16402;DHT22;8310;44.626;11.176;2023-02-07T04:22:57;0.60;58.40
16402;DHT22;8310;44.626;11.176;2023-02-07T04:25:27;0.60;58.50
16402;DHT22;8310;44.626;11.176;2023-02-07T04:27:55;0.60;58.60
16402;DHT22;8310;44.626;11.176;2023-02-07T04:30:24;0.60;58.60
16402;DHT22;8310;44.626;11.176;2023-02-07T04:32:52;0.60;58.70
16402;DHT22;8310;44.626;11.176;2023-02-07T04:35:23;0.50;58.70
16402;DHT22;8310;44.626;11.176;2023-02-07T04:37:53;0.50;58.60
16402;DHT22;8310;44.626;11.176;2023-02-07T04:40:21;0.50;58.60
16402;DHT22;8310;44.626;11.176;2023-02-07T04:42:52;0.40;58.60
16402;DHT22;8310;44.626;11.176;2023-02-07T04:45:20;0.40;58.70
16402;DHT22;8310;44.626;11.176;2023-02-07T04:47:49;0.40;58.70
16402;DHT22;8310;44.626;11.176;2023-02-07T04:50:18;0.40;58.80
16402;DHT22;8310;44.626;11.176;2023-02-07T04:52:47;0.40;58.80
16402;DHT22;8310;44.626;11.176;2023-02-07T04:55:15;0.30;58.60
16402;DHT22;8310;44.626;11.176;2023-02-07T04:57:44;0.30;58.40
16402;DHT22;8310;44.626;11.176;2023-02-07T05:00:15;0.20;58.50
16402;DHT22;8310;44.626;11.176;2023-02-07T05:02:45;0.20;58.60
16402;DHT22;8310;44.626;11.176;2023-02-07T05:05:14;0.20;58.70
16402;DHT22;8310;44.626;11.176;2023-02-07T05:07:43;0.20;58.70
16402;DHT22;8310;44.626;11.176;2023-02-07T05:12:41;0.20;58.80
16402;DHT22;8310;44.626;11.176;2023-02-07T05:15:10;0.30;59.40
16402;DHT22;8310;44.626;11.176;2023-02-07T05:17:40;0.30;58.90
16402;DHT22;8310;44.626;11.176;2023-02-07T05:20:09;0.30;58.80
16402;DHT22;8310;44.626;11.176;2023-02-07T05:22:37;0.40;58.90
16402;DHT22;8310;44.626;11.176;2023-02-07T05:25:05;0.40;58.90
16402;DHT22;8310;44.626;11.176;2023-02-07T05:27:34;0.40;59.00
16402;DHT22;8310;44.626;11.176;2023-02-07T05:30:04;0.40;59.00
16402;DHT22;8310;44.626;11.176;2023-02-07T05:32:32;0.50;59.00
16402;DHT22;8310;44.626;11.176;2023-02-07T05:35:35;0.50;59.00
16402;DHT22;8310;44.626;11.176;2023-02-07T05:38:05;0.50;59.00
16402;DHT22;8310;44.626;11.176;2023-02-07T05:40:35;0.50;59.00
16402;DHT22;8310;44.626;11.176;2023-02-07T05:43:04;0.50;59.00
16402;DHT22;8310;44.626;11.176;2023-02-07T05:45:33;0.50;59.00
16402;DHT22;8310;44.626;11.176;2023-02-07T05:48:01;0.60;59.10
16402;DHT22;8310;44.626;11.176;2023-02-07T05:50:32;0.60;59.10
16402;DHT22;8310;44.626;11.176;2023-02-07T05:53:02;0.60;59.10
16402;DHT22;8310;44.626;11.176;2023-02-07T05:55:30;0.60;58.80
16402;DHT22;8310;44.626;11.176;2023-02-07T05:57:59;0.50;58.60
16402;DHT22;8310;44.626;11.176;2023-02-07T06:00:28;0.40;58.70
16402;DHT22;8310;44.626;11.176;2023-02-07T06:02:56;0.40;58.90
16402;DHT22;8310;44.626;11.176;2023-02-07T06:05:24;0.40;58.80
16402;DHT22;8310;44.626;11.176;2023-02-07T06:07:58;0.40;59.00
16402;DHT22;8310;44.626;11.176;2023-02-07T06:10:26;0.40;59.00
16402;DHT22;8310;44.626;11.176;2023-02-07T06:12:55;0.50;59.00
16402;DHT22;8310;44.626;11.176;2023-02-07T06:15:24;0.50;59.00
16402;DHT22;8310;44.626;11.176;2023-02-07T06:17:53;0.50;59.00
16402;DHT22;8310;44.626;11.176;2023-02-07T06:20:22;0.50;59.00
16402;DHT22;8310;44.626;11.176;2023-02-07T06:22:50;0.50;58.80
16402;DHT22;8310;44.626;11.176;2023-02-07T06:25:20;0.50;59.10
16402;DHT22;8310;44.626;11.176;2023-02-07T06:27:49;0.50;59.10
16402;DHT22;8310;44.626;11.176;2023-02-07T06:30:17;0.60;59.10
16402;DHT22;8310;44.626;11.176;2023-02-07T06:32:45;0.60;59.20
16402;DHT22;8310;44.626;11.176;2023-02-07T06:35:14;0.60;59.20
16402;DHT22;8310;44.626;11.176;2023-02-07T06:37:42;0.60;59.30
16402;DHT22;8310;44.626;11.176;2023-02-07T06:40:12;0.70;59.40
16402;DHT22;8310;44.626;11.176;2023-02-07T06:42:41;0.70;59.40
16402;DHT22;8310;44.626;11.176;2023-02-07T06:45:11;0.70;59.40
16402;DHT22;8310;44.626;11.176;2023-02-07T06:47:39;0.80;59.40
16402;DHT22;8310;44.626;11.176;2023-02-07T06:50:08;0.80;59.40
16402;DHT22;8310;44.626;11.176;2023-02-07T06:52:36;0.80;59.40
16402;DHT22;8310;44.626;11.176;2023-02-07T06:55:05;0.80;59.50
16402;DHT22;8310;44.626;11.176;2023-02-07T06:57:36;0.80;59.50
16402;DHT22;8310;44.626;11.176;2023-02-07T07:00:07;0.90;59.80
16402;DHT22;8310;44.626;11.176;2023-02-07T07:02:36;1.10;61.30
16402;DHT22;8310;44.626;11.176;2023-02-07T07:05:05;1.40;62.40
16402;DHT22;8310;44.626;11.176;2023-02-07T07:07:34;1.80;63.60
16402;DHT22;8310;44.626;11.176;2023-02-07T07:10:02;2.20;64.60
16402;DHT22;8310;44.626;11.176;2023-02-07T07:12:33;2.70;66.80
16402;DHT22;8310;44.626;11.176;2023-02-07T07:15:02;3.50;69.20
16402;DHT22;8310;44.626;11.176;2023-02-07T07:17:32;4.30;71.40
16402;DHT22;8310;44.626;11.176;2023-02-07T07:20:00;5.00;72.50
16402;DHT22;8310;44.626;11.176;2023-02-07T07:22:28;5.60;73.80
16402;DHT22;8310;44.626;11.176;2023-02-07T07:24:56;6.20;75.20
16402;DHT22;8310;44.626;11.176;2023-02-07T07:27:25;6.80;76.10
16402;DHT22;8310;44.626;11.176;2023-02-07T07:29:54;7.40;77.00
16402;DHT22;8310;44.626;11.176;2023-02-07T07:32:22;7.90;77.70
16402;DHT22;8310;44.626;11.176;2023-02-07T07:34:52;8.30;77.70
16402;DHT22;8310;44.626;11.176;2023-02-07T07:37:20;8.70;77.70
16402;DHT22;8310;44.626;11.176;2023-02-07T07:39:49;9.00;78.30
16402;DHT22;8310;44.626;11.176;2023-02-07T07:42:17;9.30;78.70
16402;DHT22;8310;44.626;11.176;2023-02-07T07:44:45;9.60;78.70
16402;DHT22;8310;44.626;11.176;2023-02-07T07:47:14;9.80;78.60
16402;DHT22;8310;44.626;11.176;2023-02-07T07:49:43;10.00;78.50
16402;DHT22;8310;44.626;11.176;2023-02-07T07:52:14;10.30;79.70
16402;DHT22;8310;44.626;11.176;2023-02-07T07:54:42;10.60;80.70
16402;DHT22;8310;44.626;11.176;2023-02-07T07:57:13;11.10;81.40
16402;DHT22;8310;44.626;11.176;2023-02-07T07:59:42;11.40;81.40
16402;DHT22;8310;44.626;11.176;2023-02-07T08:02:12;11.80;81.70
16402;DHT22;8310;44.626;11.176;2023-02-07T08:04:40;12.20;81.70
16402;DHT22;8310;44.626;11.176;2023-02-07T08:07:26;12.40;81.60
16402;DHT22;8310;44.626;11.176;2023-02-07T08:09:54;12.70;81.60
16402;DHT22;8310;44.626;11.176;2023-02-07T08:12:23;12.90;81.30
16402;DHT22;8310;44.626;11.176;2023-02-07T08:15:05;13.10;81.40
16402;DHT22;8310;44.626;11.176;2023-02-07T08:17:34;13.30;81.20
16402;DHT22;8310;44.626;11.176;2023-02-07T08:20:04;13.50;81.00
16402;DHT22;8310;44.626;11.176;2023-02-07T08:22:33;13.60;80.80
16402;DHT22;8310;44.626;11.176;2023-02-07T08:25:02;13.50;79.10
16402;DHT22;8310;44.626;11.176;2023-02-07T08:27:30;13.40;78.30
16402;DHT22;8310;44.626;11.176;2023-02-07T08:29:58;13.20;76.70
16402;DHT22;8310;44.626;11.176;2023-02-07T08:32:26;13.00;74.90
16402;DHT22;8310;44.626;11.176;2023-02-07T08:34:55;12.70;72.40
16402;DHT22;8310;44.626;11.176;2023-02-07T08:37:23;12.20;69.00
16402;DHT22;8310;44.626;11.176;2023-02-07T08:39:53;11.60;67.00
16402;DHT22;8310;44.626;11.176;2023-02-07T08:42:22;10.90;65.50
16402;DHT22;8310;44.626;11.176;2023-02-07T08:44:50;10.30;64.70
16402;DHT22;8310;44.626;11.176;2023-02-07T08:47:23;9.70;64.20
16402;DHT22;8310;44.626;11.176;2023-02-07T08:49:51;9.20;63.90
16402;DHT22;8310;44.626;11.176;2023-02-07T08:52:19;8.80;63.90
16402;DHT22;8310;44.626;11.176;2023-02-07T08:54:47;8.50;63.60
16402;DHT22;8310;44.626;11.176;2023-02-07T08:57:17;8.20;63.50
16402;DHT22;8310;44.626;11.176;2023-02-07T08:59:48;8.00;63.60
16402;DHT22;8310;44.626;11.176;2023-02-07T09:02:16;7.80;63.70
16402;DHT22;8310;44.626;11.176;2023-02-07T09:04:44;7.70;63.90
16402;DHT22;8310;44.626;11.176;2023-02-07T09:07:12;7.70;63.90
16402;DHT22;8310;44.626;11.176;2023-02-07T09:09:41;7.60;63.80
16402;DHT22;8310;44.626;11.176;2023-02-07T09:12:09;7.60;63.80
16402;DHT22;8310;44.626;11.176;2023-02-07T09:14:40;7.60;63.80
16402;DHT22;8310;44.626;11.176;2023-02-07T09:17:09;7.50;63.70
16402;DHT22;8310;44.626;11.176;2023-02-07T09:19:37;7.50;63.80
16402;DHT22;8310;44.626;11.176;2023-02-07T09:22:05;7.50;63.70
16402;DHT22;8310;44.626;11.176;2023-02-07T09:24:34;7.50;63.60
16402;DHT22;8310;44.626;11.176;2023-02-07T09:27:02;7.50;63.80
16402;DHT22;8310;44.626;11.176;2023-02-07T09:29:32;7.60;63.70
16402;DHT22;8310;44.626;11.176;2023-02-07T09:32:01;7.60;63.60
16402;DHT22;8310;44.626;11.176;2023-02-07T09:34:31;7.60;63.60
16402;DHT22;8310;44.626;11.176;2023-02-07T09:37:00;7.70;63.80
16402;DHT22;8310;44.626;11.176;2023-02-07T09:39:28;7.80;63.90
16402;DHT22;8310;44.626;11.176;2023-02-07T09:42:05;7.80;63.80
16402;DHT22;8310;44.626;11.176;2023-02-07T09:44:46;7.90;63.80
16402;DHT22;8310;44.626;11.176;2023-02-07T09:47:18;8.00;63.80
16402;DHT22;8310;44.626;11.176;2023-02-07T09:49:51;8.00;63.60
16402;DHT22;8310;44.626;11.176;2023-02-07T09:52:30;8.10;63.50
16402;DHT22;8310;44.626;11.176;2023-02-07T09:55:02;8.10;63.60
16402;DHT22;8310;44.626;11.176;2023-02-07T09:57:33;8.20;63.60
16402;DHT22;8310;44.626;11.176;2023-02-07T10:00:13;8.30;63.70
16402;DHT22;8310;44.626;11.176;2023-02-07T10:02:51;8.40;63.60
16402;DHT22;8310;44.626;11.176;2023-02-07T10:05:26;8.40;63.60
16402;DHT22;8310;44.626;11.176;2023-02-07T10:07:54;8.50;63.70
16402;DHT22;8310;44.626;11.176;2023-02-07T10:10:39;8.60;63.80
16402;DHT22;8310;44.626;11.176;2023-02-07T10:13:23;8.70;63.60
16402;DHT22;8310;44.626;11.176;2023-02-07T10:16:09;8.80;63.50
16402;DHT22;8310;44.626;11.176;2023-02-07T10:18:45;8.80;63.30
16402;DHT22;8310;44.626;11.176;2023-02-07T10:21:22;8.90;63.40
16402;DHT22;8310;44.626;11.176;2023-02-07T10:24:10;9.00;63.50
16402;DHT22;8310;44.626;11.176;2023-02-07T10:26:49;9.10;63.50
16402;DHT22;8310;44.626;11.176;2023-02-07T10:29:28;9.20;63.40
16402;DHT22;8310;44.626;11.176;2023-02-07T10:32:11;9.20;63.00
16402;DHT22;8310;44.626;11.176;2023-02-07T10:34:45;9.20;62.80
16402;DHT22;8310;44.626;11.176;2023-02-07T10:37:18;9.20;62.90
16402;DHT22;8310;44.626;11.176;2023-02-07T10:39:52;9.20;63.10
16402;DHT22;8310;44.626;11.176;2023-02-07T10:42:21;9.40;63.40
16402;DHT22;8310;44.626;11.176;2023-02-07T10:44:49;9.50;63.40
16402;DHT22;8310;44.626;11.176;2023-02-07T10:47:18;9.60;63.30
16402;DHT22;8310;44.626;11.176;2023-02-07T10:49:51;9.70;63.20
16402;DHT22;8310;44.626;11.176;2023-02-07T10:52:27;9.70;63.20
16402;DHT22;8310;44.626;11.176;2023-02-07T10:54:57;9.80;63.40
16402;DHT22;8310;44.626;11.176;2023-02-07T10:57:28;9.90;63.50
16402;DHT22;8310;44.626;11.176;2023-02-07T11:00:10;10.00;63.40
16402;DHT22;8310;44.626;11.176;2023-02-07T11:02:47;10.10;63.80
16402;DHT22;8310;44.626;11.176;2023-02-07T11:05:33;10.30;63.80
16402;DHT22;8310;44.626;11.176;2023-02-07T11:08:03;10.40;63.50
16402;DHT22;8310;44.626;11.176;2023-02-07T11:10:35;10.30;63.10
16402;DHT22;8310;44.626;11.176;2023-02-07T11:13:09;10.40;63.20
16402;DHT22;8310;44.626;11.176;2023-02-07T11:15:45;10.50;63.40
16402;DHT22;8310;44.626;11.176;2023-02-07T11:18:31;10.70;63.70
16402;DHT22;8310;44.626;11.176;2023-02-07T11:21:05;10.70;63.90
16402;DHT22;8310;44.626;11.176;2023-02-07T11:23:34;10.90;64.30
16402;DHT22;8310;44.626;11.176;2023-02-07T11:26:03;11.00;64.30
16402;DHT22;8310;44.626;11.176;2023-02-07T11:28:32;11.20;64.10
16402;DHT22;8310;44.626;11.176;2023-02-07T11:31:02;11.20;63.80
16402;DHT22;8310;44.626;11.176;2023-02-07T11:33:34;11.20;63.30
16402;DHT22;8310;44.626;11.176;2023-02-07T11:36:10;11.20;63.20
16402;DHT22;8310;44.626;11.176;2023-02-07T11:38:40;11.20;63.40
16402;DHT22;8310;44.626;11.176;2023-02-07T11:41:17;11.30;63.40
16402;DHT22;8310;44.626;11.176;2023-02-07T11:43:57;11.30;63.30
16402;DHT22;8310;44.626;11.176;2023-02-07T11:46:39;11.30;63.10
16402;DHT22;8310;44.626;11.176;2023-02-07T11:49:20;11.30;63.40
16402;DHT22;8310;44.626;11.176;2023-02-07T11:51:54;11.40;63.30
16402;DHT22;8310;44.626;11.176;2023-02-07T11:54:38;11.40;63.40
16402;DHT22;8310;44.626;11.176;2023-02-07T11:57:09;11.50;63.70
16402;DHT22;8310;44.626;11.176;2023-02-07T11:59:45;11.60;63.90
16402;DHT22;8310;44.626;11.176;2023-02-07T12:02:17;11.70;63.50
16402;DHT22;8310;44.626;11.176;2023-02-07T12:04:47;11.70;63.00
16402;DHT22;8310;44.626;11.176;2023-02-07T12:07:20;11.70;63.10
16402;DHT22;8310;44.626;11.176;2023-02-07T12:09:51;11.80;63.40
16402;DHT22;8310;44.626;11.176;2023-02-07T12:12:24;11.80;63.40
16402;DHT22;8310;44.626;11.176;2023-02-07T12:14:59;11.80;63.40
16402;DHT22;8310;44.626;11.176;2023-02-07T12:17:32;11.90;63.70
16402;DHT22;8310;44.626;11.176;2023-02-07T12:20:05;12.00;63.70
16402;DHT22;8310;44.626;11.176;2023-02-07T12:22:39;12.00;63.30
16402;DHT22;8310;44.626;11.176;2023-02-07T12:25:18;12.00;63.00
16402;DHT22;8310;44.626;11.176;2023-02-07T12:27:49;12.00;63.20
16402;DHT22;8310;44.626;11.176;2023-02-07T12:30:25;12.10;63.50
16402;DHT22;8310;44.626;11.176;2023-02-07T12:33:02;12.20;63.80
16402;DHT22;8310;44.626;11.176;2023-02-07T12:35:40;12.30;64.10
16402;DHT22;8310;44.626;11.176;2023-02-07T12:38:15;12.50;64.40
16402;DHT22;8310;44.626;11.176;2023-02-07T12:40:46;12.70;64.50
16402;DHT22;8310;44.626;11.176;2023-02-07T12:43:20;12.90;64.60
16402;DHT22;8310;44.626;11.176;2023-02-07T12:46:01;13.10;64.70
16402;DHT22;8310;44.626;11.176;2023-02-07T12:48:45;13.30;64.60
16402;DHT22;8310;44.626;11.176;2023-02-07T12:51:25;13.40;64.00
16402;DHT22;8310;44.626;11.176;2023-02-07T12:54:07;13.30;63.40
16402;DHT22;8310;44.626;11.176;2023-02-07T12:56:43;13.20;62.90
16402;DHT22;8310;44.626;11.176;2023-02-07T12:59:21;13.00;62.60
16402;DHT22;8310;44.626;11.176;2023-02-07T13:02:20;13.00;63.00
16402;DHT22;8310;44.626;11.176;2023-02-07T13:05:05;13.00;63.90
16402;DHT22;8310;44.626;11.176;2023-02-07T13:07:48;13.30;64.60
16402;DHT22;8310;44.626;11.176;2023-02-07T13:10:26;13.50;64.30
16402;DHT22;8310;44.626;11.176;2023-02-07T13:13:05;13.60;63.60
16402;DHT22;8310;44.626;11.176;2023-02-07T13:15:40;13.50;63.00
16402;DHT22;8310;44.626;11.176;2023-02-07T13:18:12;13.40;62.60
16402;DHT22;8310;44.626;11.176;2023-02-07T13:20:56;13.30;62.80
16402;DHT22;8310;44.626;11.176;2023-02-07T13:23:30;13.30;63.00
16402;DHT22;8310;44.626;11.176;2023-02-07T13:26:03;13.30;63.20
16402;DHT22;8310;44.626;11.176;2023-02-07T13:28:38;13.30;63.20
16402;DHT22;8310;44.626;11.176;2023-02-07T13:31:10;13.30;62.90
16402;DHT22;8310;44.626;11.176;2023-02-07T13:33:41;13.30;62.90
16402;DHT22;8310;44.626;11.176;2023-02-07T13:36:17;13.30;63.00
16402;DHT22;8310;44.626;11.176;2023-02-07T13:39:02;13.30;62.70
16402;DHT22;8310;44.626;11.176;2023-02-07T13:41:44;13.20;62.60
16402;DHT22;8310;44.626;11.176;2023-02-07T13:44:21;13.20;62.60
16402;DHT22;8310;44.626;11.176;2023-02-07T13:47:14;13.10;62.60
16402;DHT22;8310;44.626;11.176;2023-02-07T13:49:48;13.10;62.90
16402;DHT22;8310;44.626;11.176;2023-02-07T13:52:20;13.20;63.10
16402;DHT22;8310;44.626;11.176;2023-02-07T13:54:57;13.30;63.50
16402;DHT22;8310;44.626;11.176;2023-02-07T13:57:42;13.40;63.60
16402;DHT22;8310;44.626;11.176;2023-02-07T14:00:29;13.60;63.60
16402;DHT22;8310;44.626;11.176;2023-02-07T14:02:59;13.70;63.80
16402;DHT22;8310;44.626;11.176;2023-02-07T14:05:29;13.80;63.80
16402;DHT22;8310;44.626;11.176;2023-02-07T14:08:00;13.90;63.80
16402;DHT22;8310;44.626;11.176;2023-02-07T14:10:41;14.00;63.80
16402;DHT22;8310;44.626;11.176;2023-02-07T14:13:31;14.20;63.90
16402;DHT22;8310;44.626;11.176;2023-02-07T14:16:05;14.30;63.80
16402;DHT22;8310;44.626;11.176;2023-02-07T14:18:45;14.30;63.50
16402;DHT22;8310;44.626;11.176;2023-02-07T14:21:28;14.40;63.30
16402;DHT22;8310;44.626;11.176;2023-02-07T14:24:16;14.30;62.60
16402;DHT22;8310;44.626;11.176;2023-02-07T14:26:53;14.20;62.10
16402;DHT22;8310;44.626;11.176;2023-02-07T14:32:38;14.00;62.30
16402;DHT22;8310;44.626;11.176;2023-02-07T14:35:28;14.00;62.60
16402;DHT22;8310;44.626;11.176;2023-02-07T14:38:01;14.10;62.70
16402;DHT22;8310;44.626;11.176;2023-02-07T14:40:34;14.20;62.70
16402;DHT22;8310;44.626;11.176;2023-02-07T14:43:05;14.30;62.90
16402;DHT22;8310;44.626;11.176;2023-02-07T14:45:37;14.40;62.90
16402;DHT22;8310;44.626;11.176;2023-02-07T14:48:29;14.50;62.70
16402;DHT22;8310;44.626;11.176;2023-02-07T14:50:58;14.50;62.40
16402;DHT22;8310;44.626;11.176;2023-02-07T14:53:26;14.50;62.40
16402;DHT22;8310;44.626;11.176;2023-02-07T14:56:00;14.70;62.70
16402;DHT22;8310;44.626;11.176;2023-02-07T14:58:34;14.90;63.00
16402;DHT22;8310;44.626;11.176;2023-02-07T15:01:10;15.10;63.00
16402;DHT22;8310;44.626;11.176;2023-02-07T15:03:38;15.20;62.60
16402;DHT22;8310;44.626;11.176;2023-02-07T15:06:16;15.30;62.20
16402;DHT22;8310;44.626;11.176;2023-02-07T15:08:55;15.30;61.90
16402;DHT22;8310;44.626;11.176;2023-02-07T15:11:24;15.40;62.10
16402;DHT22;8310;44.626;11.176;2023-02-07T15:13:56;15.40;62.10
16402;DHT22;8310;44.626;11.176;2023-02-07T15:16:27;15.50;62.20
16402;DHT22;8310;44.626;11.176;2023-02-07T15:18:59;15.70;62.40
16402;DHT22;8310;44.626;11.176;2023-02-07T15:21:33;15.80;62.40
16402;DHT22;8310;44.626;11.176;2023-02-07T15:24:04;16.00;62.50
16402;DHT22;8310;44.626;11.176;2023-02-07T15:26:34;16.10;62.40
16402;DHT22;8310;44.626;11.176;2023-02-07T15:29:04;16.10;61.90
16402;DHT22;8310;44.626;11.176;2023-02-07T15:31:39;16.10;61.80
16402;DHT22;8310;44.626;11.176;2023-02-07T15:34:13;16.20;61.80
16402;DHT22;8310;44.626;11.176;2023-02-07T15:36:43;16.20;61.80
16402;DHT22;8310;44.626;11.176;2023-02-07T15:39:14;16.30;61.90
16402;DHT22;8310;44.626;11.176;2023-02-07T15:41:44;16.40;61.90
16402;DHT22;8310;44.626;11.176;2023-02-07T15:44:22;16.30;61.60
16402;DHT22;8310;44.626;11.176;2023-02-07T15:46:55;16.30;61.30
16402;DHT22;8310;44.626;11.176;2023-02-07T15:49:29;16.20;60.90
16402;DHT22;8310;44.626;11.176;2023-02-07T15:52:03;16.00;60.40
16402;DHT22;8310;44.626;11.176;2023-02-07T15:54:38;15.90;60.30
16402;DHT22;8310;44.626;11.176;2023-02-07T15:57:11;15.60;60.20
16402;DHT22;8310;44.626;11.176;2023-02-07T15:59:40;15.50;60.00
16402;DHT22;8310;44.626;11.176;2023-02-07T16:02:26;15.30;60.00
16402;DHT22;8310;44.626;11.176;2023-02-07T16:04:56;15.20;60.00
16402;DHT22;8310;44.626;11.176;2023-02-07T16:07:24;15.00;59.90
16402;DHT22;8310;44.626;11.176;2023-02-07T16:09:52;14.90;59.90
16402;DHT22;8310;44.626;11.176;2023-02-07T16:12:29;14.70;59.80
16402;DHT22;8310;44.626;11.176;2023-02-07T16:14:59;14.60;60.00
16402;DHT22;8310;44.626;11.176;2023-02-07T16:17:40;14.50;60.10
16402;DHT22;8310;44.626;11.176;2023-02-07T16:20:12;14.40;60.20
16402;DHT22;8310;44.626;11.176;2023-02-07T16:22:41;14.20;60.00
16402;DHT22;8310;44.626;11.176;2023-02-07T16:25:14;14.10;60.10
16402;DHT22;8310;44.626;11.176;2023-02-07T16:27:44;13.90;60.00
16402;DHT22;8310;44.626;11.176;2023-02-07T16:30:15;13.70;59.60
16402;DHT22;8310;44.626;11.176;2023-02-07T16:32:45;13.50;59.90